sensor_id;sensor_type;location;lat;lon;timestamp;pressure;altitude;pressure_sealevel;temperature;humidity
38400;BME280;24180;42.676;23.320;2023-07-30T00:00:33;94897.88;;;21.09;100.00
38400;BME280;24180;42.676;23.320;2023-07-30T00:02:59;94912.03;;;20.95;100.00
38400;BME280;24180;42.676;23.320;2023-07-30T00:05:24;94889.41;;;21.08;100.00
38400;BME280;24180;42.676;23.320;2023-07-30T00:07:49;94906.66;;;20.84;100.00
38400;BME280;24180;42.676;23.320;2023-07-30T00:10:15;94917.53;;;20.94;100.00
38400;BME280;24180;42.676;23.320;2023-07-30T00:12:41;94907.66;;;20.79;100.00
38400;BME280;24180;42.676;23.320;2023-07-30T00:15:07;94904.41;;;20.79;100.00
38400;BME280;24180;42.676;23.320;2023-07-30T00:17:32;94881.41;;;20.77;100.00
38400;BME280;24180;42.676;23.320;2023-07-30T00:19:58;94899.41;;;20.56;100.00
38400;BME280;24180;42.676;23.320;2023-07-30T00:22:23;94903.16;;;20.82;100.00
38400;BME280;24180;42.676;23.320;2023-07-30T00:24:49;94892.81;;;20.57;100.00
38400;BME280;24180;42.676;23.320;2023-07-30T00:27:14;94883.50;;;20.57;100.00
38400;BME280;24180;42.676;23.320;2023-07-30T00:29:39;94883.34;;;20.61;100.00
38400;BME280;24180;42.676;23.320;2023-07-30T00:32:05;94863.94;;;20.48;100.00
38400;BME280;24180;42.676;23.320;2023-07-30T00:34:31;94891.44;;;20.41;100.00
38400;BME280;24180;42.676;23.320;2023-07-30T00:36:56;94886.88;;;20.61;100.00
38400;BME280;24180;42.676;23.320;2023-07-30T00:39:22;94867.41;;;20.41;100.00
38400;BME280;24180;42.676;23.320;2023-07-30T00:41:47;94892.75;;;20.50;100.00
38400;BME280;24180;42.676;23.320;2023-07-30T00:44:12;94898.34;;;20.50;100.00
38400;BME280;24180;42.676;23.320;2023-07-30T00:46:38;94870.06;;;20.41;100.00
38400;BME280;24180;42.676;23.320;2023-07-30T00:49:03;94887.75;;;20.41;100.00
38400;BME280;24180;42.676;23.320;2023-07-30T00:51:31;60207.59;;;24.26;100.00
38400;BME280;24180;42.676;23.320;2023-07-30T00:53:59;94915.47;;;26.14;100.00
38400;BME280;24180;42.676;23.320;2023-07-30T00:56:25;94908.50;;;20.37;100.00
38400;BME280;24180;42.676;23.320;2023-07-30T00:58:52;94869.59;;;20.16;100.00
38400;BME280;24180;42.676;23.320;2023-07-30T01:01:18;94858.56;;;20.16;100.00
38400;BME280;24180;42.676;23.320;2023-07-30T01:03:43;94880.31;;;20.13;100.00
38400;BME280;24180;42.676;23.320;2023-07-30T01:06:10;94891.84;;;20.22;100.00
38400;BME280;24180;42.676;23.320;2023-07-30T01:08:35;94880.53;;;20.13;100.00
38400;BME280;24180;42.676;23.320;2023-07-30T01:11:02;94877.91;;;20.13;100.00
38400;BME280;24180;42.676;23.320;2023-07-30T01:13:29;94894.59;;;20.13;100.00
38400;BME280;24180;42.676;23.320;2023-07-30T01:15:55;94925.13;;;20.16;100.00
38400;BME280;24180;42.676;23.320;2023-07-30T01:18:21;94901.88;;;20.12;100.00
38400;BME280;24180;42.676;23.320;2023-07-30T01:20:46;94896.47;;;20.12;100.00
38400;BME280;24180;42.676;23.320;2023-07-30T01:23:12;94910.25;;;20.15;100.00
38400;BME280;24180;42.676;23.320;2023-07-30T01:25:37;94899.16;;;20.15;100.00
38400;BME280;24180;42.676;23.320;2023-07-30T01:28:04;94915.03;;;20.05;100.00
38400;BME280;24180;42.676;23.320;2023-07-30T01:30:38;94898.56;;;19.90;100.00
38400;BME280;24180;42.676;23.320;2023-07-30T01:33:05;94906.03;;;19.88;100.00
38400;BME280;24180;42.676;23.320;2023-07-30T01:35:32;94906.56;;;19.85;100.00
38400;BME280;24180;42.676;23.320;2023-07-30T01:37:57;60207.59;;;24.27;100.00
38400;BME280;24180;42.676;23.320;2023-07-30T01:40:23;94892.88;;;26.14;100.00
38400;BME280;24180;42.676;23.320;2023-07-30T01:42:49;94891.81;;;19.71;100.00
38400;BME280;24180;42.676;23.320;2023-07-30T01:45:15;94917.13;;;19.80;100.00
38400;BME280;24180;42.676;23.320;2023-07-30T01:47:41;94888.56;;;19.80;100.00
38400;BME280;24180;42.676;23.320;2023-07-30T01:50:06;94926.81;;;19.73;100.00
38400;BME280;24180;42.676;23.320;2023-07-30T01:52:32;94875.91;;;19.73;100.00
38400;BME280;24180;42.676;23.320;2023-07-30T01:55:16;94924.91;;;19.82;100.00
38400;BME280;24180;42.676;23.320;2023-07-30T01:57:41;94890.16;;;19.70;100.00
38400;BME280;24180;42.676;23.320;2023-07-30T02:00:07;94896.53;;;19.75;100.00
38400;BME280;24180;42.676;23.320;2023-07-30T02:02:33;94891.00;;;19.70;100.00
38400;BME280;24180;42.676;23.320;2023-07-30T02:05:00;60204.03;;;24.22;100.00
38400;BME280;24180;42.676;23.320;2023-07-30T02:07:26;94910.94;;;19.73;100.00
38400;BME280;24180;42.676;23.320;2023-07-30T02:09:51;94929.63;;;19.73;100.00
38400;BME280;24180;42.676;23.320;2023-07-30T02:12:16;94913.78;;;19.71;100.00
38400;BME280;24180;42.676;23.320;2023-07-30T02:14:42;60218.78;;;24.27;100.00
38400;BME280;24180;42.676;23.320;2023-07-30T02:17:07;94914.88;;;19.62;100.00
38400;BME280;24180;42.676;23.320;2023-07-30T02:19:33;94914.63;;;19.57;100.00
38400;BME280;24180;42.676;23.320;2023-07-30T02:21:58;94923.53;;;19.56;100.00
38400;BME280;24180;42.676;23.320;2023-07-30T02:24:23;94926.25;;;19.63;100.00
38400;BME280;24180;42.676;23.320;2023-07-30T02:26:49;94897.91;;;19.42;100.00
38400;BME280;24180;42.676;23.320;2023-07-30T02:29:14;94915.69;;;19.48;100.00
38400;BME280;24180;42.676;23.320;2023-07-30T02:31:39;94932.09;;;19.48;100.00
38400;BME280;24180;42.676;23.320;2023-07-30T02:34:05;94924.25;;;19.35;100.00
38400;BME280;24180;42.676;23.320;2023-07-30T02:36:32;94924.06;;;19.51;100.00
38400;BME280;24180;42.676;23.320;2023-07-30T02:38:57;94930.09;;;19.60;100.00
38400;BME280;24180;42.676;23.320;2023-07-30T02:41:22;94930.78;;;19.54;100.00
38400;BME280;24180;42.676;23.320;2023-07-30T02:43:48;94910.31;;;19.27;100.00
38400;BME280;24180;42.676;23.320;2023-07-30T02:46:14;94946.19;;;19.27;100.00
38400;BME280;24180;42.676;23.320;2023-07-30T02:48:39;94922.88;;;19.24;100.00
38400;BME280;24180;42.676;23.320;2023-07-30T02:51:04;94933.63;;;19.38;100.00
38400;BME280;24180;42.676;23.320;2023-07-30T02:53:30;94909.88;;;19.23;100.00
38400;BME280;24180;42.676;23.320;2023-07-30T02:55:55;94916.06;;;19.30;100.00
38400;BME280;24180;42.676;23.320;2023-07-30T02:58:21;94885.72;;;19.11;100.00
38400;BME280;24180;42.676;23.320;2023-07-30T03:00:46;94917.94;;;19.21;100.00
38400;BME280;24180;42.676;23.320;2023-07-30T03:03:11;94922.97;;;19.31;100.00
38400;BME280;24180;42.676;23.320;2023-07-30T03:05:41;94897.81;;;19.32;100.00
38400;BME280;24180;42.676;23.320;2023-07-30T03:08:07;94943.19;;;19.06;100.00
38400;BME280;24180;42.676;23.320;2023-07-30T03:10:32;94931.03;;;19.30;100.00
38400;BME280;24180;42.676;23.320;2023-07-30T03:12:58;94936.84;;;19.33;100.00
38400;BME280;24180;42.676;23.320;2023-07-30T03:15:23;94930.59;;;19.26;100.00
38400;BME280;24180;42.676;23.320;2023-07-30T03:17:49;94930.44;;;19.28;100.00
38400;BME280;24180;42.676;23.320;2023-07-30T03:20:14;94927.25;;;19.32;100.00
38400;BME280;24180;42.676;23.320;2023-07-30T03:22:39;94928.16;;;19.24;100.00
38400;BME280;24180;42.676;23.320;2023-07-30T03:25:05;94926.22;;;19.18;100.00
38400;BME280;24180;42.676;23.320;2023-07-30T03:27:31;94927.84;;;19.05;100.00
38400;BME280;24180;42.676;23.320;2023-07-30T03:29:56;94899.47;;;19.07;100.00
38400;BME280;24180;42.676;23.320;2023-07-30T03:32:22;94913.19;;;19.07;100.00
38400;BME280;24180;42.676;23.320;2023-07-30T03:34:47;94903.44;;;19.03;100.00
38400;BME280;24180;42.676;23.320;2023-07-30T03:37:12;94918.38;;;19.10;100.00
38400;BME280;24180;42.676;23.320;2023-07-30T03:39:38;94940.63;;;19.16;100.00
38400;BME280;24180;42.676;23.320;2023-07-30T03:42:03;94924.66;;;19.09;100.00
38400;BME280;24180;42.676;23.320;2023-07-30T03:44:29;94902.28;;;18.90;100.00
38400;BME280;24180;42.676;23.320;2023-07-30T03:46:54;94925.03;;;19.06;100.00
38400;BME280;24180;42.676;23.320;2023-07-30T03:49:20;94919.84;;;18.98;100.00
38400;BME280;24180;42.676;23.320;2023-07-30T03:51:45;94918.63;;;18.86;100.00
38400;BME280;24180;42.676;23.320;2023-07-30T03:54:11;94915.91;;;18.94;100.00
38400;BME280;24180;42.676;23.320;2023-07-30T03:56:36;94918.00;;;18.84;100.00
38400;BME280;24180;42.676;23.320;2023-07-30T03:59:02;94934.19;;;18.81;100.00
38400;BME280;24180;42.676;23.320;2023-07-30T04:01:27;94944.22;;;19.00;100.00
38400;BME280;24180;42.676;23.320;2023-07-30T04:03:54;94948.03;;;18.97;100.00
38400;BME280;24180;42.676;23.320;2023-07-30T04:06:19;94930.09;;;18.93;100.00
38400;BME280;24180;42.676;23.320;2023-07-30T04:08:45;60218.78;;;24.22;100.00
38400;BME280;24180;42.676;23.320;2023-07-30T04:11:10;94923.19;;;18.92;100.00
38400;BME280;24180;42.676;23.320;2023-07-30T04:13:36;94937.22;;;19.07;100.00
38400;BME280;24180;42.676;23.320;2023-07-30T04:16:01;94931.19;;;18.84;100.00
38400;BME280;24180;42.676;23.320;2023-07-30T04:18:26;94925.91;;;18.84;100.00
38400;BME280;24180;42.676;23.320;2023-07-30T04:20:54;94939.38;;;18.89;100.00
38400;BME280;24180;42.676;23.320;2023-07-30T04:23:21;94931.38;;;18.97;100.00
38400;BME280;24180;42.676;23.320;2023-07-30T04:25:49;94953.53;;;19.11;100.00
38400;BME280;24180;42.676;23.320;2023-07-30T04:28:15;94942.44;;;19.15;100.00
38400;BME280;24180;42.676;23.320;2023-07-30T04:30:40;94923.75;;;19.02;100.00
38400;BME280;24180;42.676;23.320;2023-07-30T04:33:05;94928.66;;;19.05;100.00
38400;BME280;24180;42.676;23.320;2023-07-30T04:35:31;94963.09;;;19.27;100.00
38400;BME280;24180;42.676;23.320;2023-07-30T04:37:56;94953.22;;;19.29;100.00
38400;BME280;24180;42.676;23.320;2023-07-30T04:40:22;94923.13;;;19.15;100.00
38400;BME280;24180;42.676;23.320;2023-07-30T04:42:47;94985.59;;;19.22;100.00
38400;BME280;24180;42.676;23.320;2023-07-30T04:45:12;94951.94;;;19.39;100.00
38400;BME280;24180;42.676;23.320;2023-07-30T04:47:38;94961.66;;;19.39;100.00
38400;BME280;24180;42.676;23.320;2023-07-30T04:50:04;94959.31;;;19.44;100.00
38400;BME280;24180;42.676;23.320;2023-07-30T04:52:29;94950.31;;;19.53;100.00
38400;BME280;24180;42.676;23.320;2023-07-30T04:54:54;94961.78;;;19.60;100.00
38400;BME280;24180;42.676;23.320;2023-07-30T04:57:20;94935.81;;;19.49;100.00
38400;BME280;24180;42.676;23.320;2023-07-30T04:59:45;94942.13;;;19.48;100.00
38400;BME280;24180;42.676;23.320;2023-07-30T05:02:11;94957.31;;;19.75;100.00
38400;BME280;24180;42.676;23.320;2023-07-30T05:04:36;94938.03;;;19.60;100.00
38400;BME280;24180;42.676;23.320;2023-07-30T05:07:02;94955.53;;;19.61;100.00
38400;BME280;24180;42.676;23.320;2023-07-30T05:09:27;94969.31;;;19.78;100.00
38400;BME280;24180;42.676;23.320;2023-07-30T05:11:52;94942.31;;;19.61;100.00
38400;BME280;24180;42.676;23.320;2023-07-30T05:14:18;94944.03;;;19.69;100.00
38400;BME280;24180;42.676;23.320;2023-07-30T05:16:43;94946.41;;;19.78;100.00
38400;BME280;24180;42.676;23.320;2023-07-30T05:19:09;94938.00;;;19.90;100.00
38400;BME280;24180;42.676;23.320;2023-07-30T05:21:34;94935.56;;;19.88;100.00
38400;BME280;24180;42.676;23.320;2023-07-30T05:24:00;94953.41;;;20.01;100.00
38400;BME280;24180;42.676;23.320;2023-07-30T05:26:25;94945.94;;;20.04;100.00
38400;BME280;24180;42.676;23.320;2023-07-30T05:28:50;94961.03;;;20.11;100.00
38400;BME280;24180;42.676;23.320;2023-07-30T05:31:16;94936.84;;;20.11;100.00
38400;BME280;24180;42.676;23.320;2023-07-30T05:33:41;94963.94;;;20.28;100.00
38400;BME280;24180;42.676;23.320;2023-07-30T05:36:06;94959.00;;;20.30;100.00
38400;BME280;24180;42.676;23.320;2023-07-30T05:38:33;94978.97;;;20.45;100.00
38400;BME280;24180;42.676;23.320;2023-07-30T05:40:58;94959.25;;;20.45;100.00
38400;BME280;24180;42.676;23.320;2023-07-30T05:43:24;94946.59;;;20.62;100.00
38400;BME280;24180;42.676;23.320;2023-07-30T05:45:49;94964.28;;;20.64;100.00
38400;BME280;24180;42.676;23.320;2023-07-30T05:48:14;94957.47;;;20.69;100.00
38400;BME280;24180;42.676;23.320;2023-07-30T05:50:40;94944.38;;;20.69;100.00
38400;BME280;24180;42.676;23.320;2023-07-30T05:53:05;94939.00;;;20.82;100.00
38400;BME280;24180;42.676;23.320;2023-07-30T05:55:31;94939.72;;;20.97;100.00
38400;BME280;24180;42.676;23.320;2023-07-30T05:57:56;94965.59;;;21.06;100.00
38400;BME280;24180;42.676;23.320;2023-07-30T06:00:21;94988.31;;;21.41;100.00
38400;BME280;24180;42.676;23.320;2023-07-30T06:02:47;94943.28;;;21.41;100.00
38400;BME280;24180;42.676;23.320;2023-07-30T06:05:13;94969.78;;;21.43;100.00
38400;BME280;24180;42.676;23.320;2023-07-30T06:07:38;94950.63;;;21.69;100.00
38400;BME280;24180;42.676;23.320;2023-07-30T06:10:04;94949.28;;;21.67;100.00
38400;BME280;24180;42.676;23.320;2023-07-30T06:12:29;94966.69;;;21.78;100.00
38400;BME280;24180;42.676;23.320;2023-07-30T06:14:55;94962.50;;;21.94;100.00
38400;BME280;24180;42.676;23.320;2023-07-30T06:17:20;94958.44;;;22.06;100.00
38400;BME280;24180;42.676;23.320;2023-07-30T06:19:46;94966.75;;;22.10;100.00
38400;BME280;24180;42.676;23.320;2023-07-30T06:22:11;94977.63;;;22.35;100.00
38400;BME280;24180;42.676;23.320;2023-07-30T06:24:36;94978.31;;;22.47;100.00
38400;BME280;24180;42.676;23.320;2023-07-30T06:27:02;94941.13;;;22.62;100.00
38400;BME280;24180;42.676;23.320;2023-07-30T06:29:27;94962.47;;;22.56;100.00
38400;BME280;24180;42.676;23.320;2023-07-30T06:31:53;94992.38;;;22.97;100.00
38400;BME280;24180;42.676;23.320;2023-07-30T06:34:18;94971.13;;;22.97;100.00
38400;BME280;24180;42.676;23.320;2023-07-30T06:36:44;94965.06;;;23.17;100.00
38400;BME280;24180;42.676;23.320;2023-07-30T06:39:09;94956.91;;;23.17;100.00
38400;BME280;24180;42.676;23.320;2023-07-30T06:41:34;94959.19;;;23.31;100.00
38400;BME280;24180;42.676;23.320;2023-07-30T06:44:00;94957.34;;;23.48;100.00
38400;BME280;24180;42.676;23.320;2023-07-30T06:46:25;94953.25;;;23.48;100.00
38400;BME280;24180;42.676;23.320;2023-07-30T06:48:51;94934.03;;;23.46;100.00
38400;BME280;24180;42.676;23.320;2023-07-30T06:51:19;94940.19;;;23.37;100.00
38400;BME280;24180;42.676;23.320;2023-07-30T06:53:45;94909.91;;;23.51;100.00
38400;BME280;24180;42.676;23.320;2023-07-30T06:56:10;94929.78;;;23.58;100.00
38400;BME280;24180;42.676;23.320;2023-07-30T06:58:35;94949.19;;;23.69;100.00
38400;BME280;24180;42.676;23.320;2023-07-30T07:01:01;94919.34;;;23.76;100.00
38400;BME280;24180;42.676;23.320;2023-07-30T07:03:26;60207.88;;;24.27;100.00
38400;BME280;24180;42.676;23.320;2023-07-30T07:05:55;94948.41;;;28.76;100.00
38400;BME280;24180;42.676;23.320;2023-07-30T07:08:21;94933.44;;;24.02;100.00
38400;BME280;24180;42.676;23.320;2023-07-30T07:10:47;94912.16;;;24.08;100.00
38400;BME280;24180;42.676;23.320;2023-07-30T07:13:13;94933.19;;;24.18;100.00
38400;BME280;24180;42.676;23.320;2023-07-30T07:15:41;94924.16;;;28.76;100.00
38400;BME280;24180;42.676;23.320;2023-07-30T07:18:06;60186.84;;;24.27;100.00
38400;BME280;24180;42.676;23.320;2023-07-30T07:20:32;94904.00;;;28.76;100.00
38400;BME280;24180;42.676;23.320;2023-07-30T07:22:57;94912.09;;;29.09;100.00
38400;BME280;24180;42.676;23.320;2023-07-30T07:25:23;94894.53;;;29.00;100.00
38400;BME280;24180;42.676;23.320;2023-07-30T07:27:49;94889.97;;;29.05;100.00
38400;BME280;24180;42.676;23.320;2023-07-30T07:30:14;60195.31;;;24.35;100.00
38400;BME280;24180;42.676;23.320;2023-07-30T07:32:39;94904.94;;;29.42;100.00
38400;BME280;24180;42.676;23.320;2023-07-30T07:35:06;60207.88;;;24.27;100.00
38400;BME280;24180;42.676;23.320;2023-07-30T07:37:32;94957.00;;;25.54;100.00
38400;BME280;24180;42.676;23.320;2023-07-30T07:39:57;95355.69;;;28.76;100.00
38400;BME280;24180;42.676;23.320;2023-07-30T07:42:23;60194.00;;;24.35;100.00
38400;BME280;24180;42.676;23.320;2023-07-30T07:44:48;60194.00;;;24.35;100.00
38400;BME280;24180;42.676;23.320;2023-07-30T07:47:13;60194.00;;;24.35;100.00
38400;BME280;24180;42.676;23.320;2023-07-30T07:49:39;60195.31;;;24.35;100.00
38400;BME280;24180;42.676;23.320;2023-07-30T07:52:04;60186.84;;;24.35;100.00
38400;BME280;24180;42.676;23.320;2023-07-30T07:54:30;60185.53;;;24.35;100.00
38400;BME280;24180;42.676;23.320;2023-07-30T07:56:55;60194.00;;;24.27;100.00
38400;BME280;24180;42.676;23.320;2023-07-30T07:59:21;60194.00;;;24.27;100.00
38400;BME280;24180;42.676;23.320;2023-07-30T08:01:46;95350.66;;;29.42;100.00
38400;BME280;24180;42.676;23.320;2023-07-30T08:04:12;60168.84;;;24.35;100.00
38400;BME280;24180;42.676;23.320;2023-07-30T08:06:37;60194.00;;;24.35;100.00
38400;BME280;24180;42.676;23.320;2023-07-30T08:09:02;60194.00;;;24.35;100.00
38400;BME280;24180;42.676;23.320;2023-07-30T08:11:28;60194.00;;;24.35;100.00
38400;BME280;24180;42.676;23.320;2023-07-30T08:13:53;60194.00;;;24.35;100.00
38400;BME280;24180;42.676;23.320;2023-07-30T08:16:19;60194.00;;;24.35;100.00
38400;BME280;24180;42.676;23.320;2023-07-30T08:18:44;60194.00;;;24.35;100.00
38400;BME280;24180;42.676;23.320;2023-07-30T08:21:10;60194.00;;;24.35;100.00
38400;BME280;24180;42.676;23.320;2023-07-30T08:23:35;60194.00;;;24.35;100.00
38400;BME280;24180;42.676;23.320;2023-07-30T08:26:00;60194.00;;;24.35;100.00
38400;BME280;24180;42.676;23.320;2023-07-30T08:28:26;60194.00;;;24.35;100.00
38400;BME280;24180;42.676;23.320;2023-07-30T08:30:51;60194.00;;;24.35;100.00
38400;BME280;24180;42.676;23.320;2023-07-30T08:33:17;60194.00;;;24.35;100.00
38400;BME280;24180;42.676;23.320;2023-07-30T08:35:42;60194.00;;;24.35;100.00
38400;BME280;24180;42.676;23.320;2023-07-30T08:38:08;60194.00;;;24.35;100.00
38400;BME280;24180;42.676;23.320;2023-07-30T08:40:33;60194.00;;;24.35;100.00
38400;BME280;24180;42.676;23.320;2023-07-30T08:42:59;60194.00;;;24.35;100.00
38400;BME280;24180;42.676;23.320;2023-07-30T08:45:24;60194.00;;;24.35;100.00
38400;BME280;24180;42.676;23.320;2023-07-30T08:47:50;60194.00;;;24.35;100.00
38400;BME280;24180;42.676;23.320;2023-07-30T08:50:15;60194.00;;;24.35;100.00
38400;BME280;24180;42.676;23.320;2023-07-30T08:52:41;60194.00;;;24.35;100.00
38400;BME280;24180;42.676;23.320;2023-07-30T08:55:07;60194.00;;;24.35;100.00
38400;BME280;24180;42.676;23.320;2023-07-30T08:57:33;60194.00;;;24.35;100.00
38400;BME280;24180;42.676;23.320;2023-07-30T09:00:06;60194.00;;;24.35;100.00
38400;BME280;24180;42.676;23.320;2023-07-30T09:02:52;60194.00;;;24.35;100.00
38400;BME280;24180;42.676;23.320;2023-07-30T09:05:20;60194.00;;;24.35;100.00
38400;BME280;24180;42.676;23.320;2023-07-30T09:07:46;60194.00;;;24.35;100.00
38400;BME280;24180;42.676;23.320;2023-07-30T09:10:12;60194.00;;;24.35;100.00
38400;BME280;24180;42.676;23.320;2023-07-30T09:12:38;60194.00;;;24.35;100.00
38400;BME280;24180;42.676;23.320;2023-07-30T09:15:04;60194.00;;;24.35;100.00
38400;BME280;24180;42.676;23.320;2023-07-30T09:17:31;60194.00;;;24.35;100.00
38400;BME280;24180;42.676;23.320;2023-07-30T09:20:02;60194.00;;;24.35;100.00
38400;BME280;24180;42.676;23.320;2023-07-30T09:22:30;60194.00;;;24.35;100.00
38400;BME280;24180;42.676;23.320;2023-07-30T09:24:58;60194.00;;;24.35;100.00
38400;BME280;24180;42.676;23.320;2023-07-30T09:27:27;60151.91;;;24.35;100.00
38400;BME280;24180;42.676;23.320;2023-07-30T09:29:56;60194.00;;;24.35;100.00
38400;BME280;24180;42.676;23.320;2023-07-30T09:32:30;60194.00;;;24.35;100.00
38400;BME280;24180;42.676;23.320;2023-07-30T09:35:06;60194.00;;;24.35;100.00
38400;BME280;24180;42.676;23.320;2023-07-30T09:37:39;60194.00;;;24.35;100.00
38400;BME280;24180;42.676;23.320;2023-07-30T09:40:06;60194.00;;;24.35;100.00
38400;BME280;24180;42.676;23.320;2023-07-30T09:42:31;60194.00;;;24.35;100.00
38400;BME280;24180;42.676;23.320;2023-07-30T09:44:59;60151.91;;;24.35;100.00
38400;BME280;24180;42.676;23.320;2023-07-30T09:47:26;60194.00;;;24.35;100.00
38400;BME280;24180;42.676;23.320;2023-07-30T09:49:53;60194.00;;;24.35;100.00
38400;BME280;24180;42.676;23.320;2023-07-30T09:52:18;60194.00;;;24.35;100.00
38400;BME280;24180;42.676;23.320;2023-07-30T09:54:44;60194.00;;;24.35;100.00
38400;BME280;24180;42.676;23.320;2023-07-30T09:57:10;60194.00;;;24.35;100.00
38400;BME280;24180;42.676;23.320;2023-07-30T09:59:35;60194.00;;;24.35;100.00
38400;BME280;24180;42.676;23.320;2023-07-30T10:02:01;60151.91;;;24.35;100.00
38400;BME280;24180;42.676;23.320;2023-07-30T10:04:26;60194.00;;;24.35;100.00
38400;BME280;24180;42.676;23.320;2023-07-30T10:07:01;60194.00;;;24.35;100.00
38400;BME280;24180;42.676;23.320;2023-07-30T10:09:30;60151.91;;;24.35;100.00
38400;BME280;24180;42.676;23.320;2023-07-30T10:11:58;60151.91;;;24.35;100.00
38400;BME280;24180;42.676;23.320;2023-07-30T10:14:25;60151.91;;;24.35;100.00
38400;BME280;24180;42.676;23.320;2023-07-30T10:16:55;60151.91;;;24.35;100.00
38400;BME280;24180;42.676;23.320;2023-07-30T10:19:25;60168.84;;;24.35;100.00
38400;BME280;24180;42.676;23.320;2023-07-30T10:21:53;60151.91;;;24.35;100.00
38400;BME280;24180;42.676;23.320;2023-07-30T10:24:18;60151.91;;;24.35;100.00
38400;BME280;24180;42.676;23.320;2023-07-30T10:26:44;60168.84;;;24.35;100.00
38400;BME280;24180;42.676;23.320;2023-07-30T10:31:39;60168.84;;;24.51;100.00
38400;BME280;24180;42.676;23.320;2023-07-30T10:34:10;60168.84;;;24.51;100.00
38400;BME280;24180;42.676;23.320;2023-07-30T10:36:42;60338.47;;;24.51;100.00
38400;BME280;24180;42.676;23.320;2023-07-30T10:39:40;60168.84;;;24.51;100.00
38400;BME280;24180;42.676;23.320;2023-07-30T10:42:06;60168.84;;;24.51;100.00
38400;BME280;24180;42.676;23.320;2023-07-30T10:44:33;60084.69;;;24.35;100.00
38400;BME280;24180;42.676;23.320;2023-07-30T10:47:00;60151.91;;;24.35;100.00
38400;BME280;24180;42.676;23.320;2023-07-30T10:49:26;60067.78;;;24.35;100.00
38400;BME280;24180;42.676;23.320;2023-07-30T10:51:53;60084.69;;;24.35;100.00
38400;BME280;24180;42.676;23.320;2023-07-30T10:54:19;60168.84;;;24.51;100.00
38400;BME280;24180;42.676;23.320;2023-07-30T10:56:45;60168.84;;;24.35;100.00
38400;BME280;24180;42.676;23.320;2023-07-30T10:59:12;60168.84;;;24.51;100.00
38400;BME280;24180;42.676;23.320;2023-07-30T11:01:39;60168.84;;;24.51;100.00
38400;BME280;24180;42.676;23.320;2023-07-30T11:04:11;60168.84;;;24.35;100.00
38400;BME280;24180;42.676;23.320;2023-07-30T11:06:37;60084.69;;;24.51;100.00
38400;BME280;24180;42.676;23.320;2023-07-30T11:09:04;60084.69;;;24.35;100.00
38400;BME280;24180;42.676;23.320;2023-07-30T11:11:30;60084.69;;;24.35;100.00
38400;BME280;24180;42.676;23.320;2023-07-30T11:13:56;60084.69;;;24.35;100.00
38400;BME280;24180;42.676;23.320;2023-07-30T11:16:22;60084.69;;;24.51;100.00
38400;BME280;24180;42.676;23.320;2023-07-30T11:18:47;60084.69;;;24.35;100.00
38400;BME280;24180;42.676;23.320;2023-07-30T11:21:15;60084.69;;;24.35;100.00
38400;BME280;24180;42.676;23.320;2023-07-30T11:23:42;60084.69;;;24.35;100.00
38400;BME280;24180;42.676;23.320;2023-07-30T11:26:09;60084.69;;;24.35;100.00
38400;BME280;24180;42.676;23.320;2023-07-30T11:28:39;60084.69;;;24.51;100.00
38400;BME280;24180;42.676;23.320;2023-07-30T11:31:07;60151.91;;;24.35;100.00
38400;BME280;24180;42.676;23.320;2023-07-30T11:33:33;60168.84;;;24.51;100.00
38400;BME280;24180;42.676;23.320;2023-07-30T11:36:01;60067.78;;;24.35;100.00
38400;BME280;24180;42.676;23.320;2023-07-30T11:38:27;60168.84;;;24.51;100.00
38400;BME280;24180;42.676;23.320;2023-07-30T11:40:55;60067.78;;;24.35;100.00
38400;BME280;24180;42.676;23.320;2023-07-30T11:43:21;60084.69;;;24.35;100.00
38400;BME280;24180;42.676;23.320;2023-07-30T11:45:47;60084.69;;;24.51;100.00
38400;BME280;24180;42.676;23.320;2023-07-30T11:48:13;60084.69;;;24.51;100.00
38400;BME280;24180;42.676;23.320;2023-07-30T11:50:51;60084.69;;;24.51;100.00
38400;BME280;24180;42.676;23.320;2023-07-30T11:53:17;60084.69;;;24.51;100.00
38400;BME280;24180;42.676;23.320;2023-07-30T11:55:43;60084.69;;;24.51;100.00
38400;BME280;24180;42.676;23.320;2023-07-30T11:58:10;60084.69;;;24.51;100.00
38400;BME280;24180;42.676;23.320;2023-07-30T12:00:36;60084.69;;;24.51;100.00
38400;BME280;24180;42.676;23.320;2023-07-30T12:03:04;60084.69;;;24.51;100.00
38400;BME280;24180;42.676;23.320;2023-07-30T12:05:34;60084.69;;;24.51;100.00
38400;BME280;24180;42.676;23.320;2023-07-30T12:08:04;60084.69;;;24.51;100.00
38400;BME280;24180;42.676;23.320;2023-07-30T12:10:45;60084.69;;;24.51;100.00
38400;BME280;24180;42.676;23.320;2023-07-30T12:13:20;60084.69;;;24.51;100.00
38400;BME280;24180;42.676;23.320;2023-07-30T12:15:55;60168.84;;;24.51;100.00
38400;BME280;24180;42.676;23.320;2023-07-30T12:18:22;60168.84;;;24.51;100.00
38400;BME280;24180;42.676;23.320;2023-07-30T12:20:49;60168.84;;;24.51;100.00
38400;BME280;24180;42.676;23.320;2023-07-30T12:23:19;60084.69;;;24.51;100.00
38400;BME280;24180;42.676;23.320;2023-07-30T12:25:45;60084.69;;;24.35;100.00
38400;BME280;24180;42.676;23.320;2023-07-30T12:28:11;60118.56;;;24.51;100.00
38400;BME280;24180;42.676;23.320;2023-07-30T12:30:37;60084.69;;;24.51;100.00
38400;BME280;24180;42.676;23.320;2023-07-30T12:33:03;60084.69;;;24.51;100.00
38400;BME280;24180;42.676;23.320;2023-07-30T12:35:30;60151.91;;;24.35;100.00
38400;BME280;24180;42.676;23.320;2023-07-30T12:37:55;60168.84;;;24.51;100.00